sensor_id;sensor_type;location;lat;lon;timestamp;temperature;humidity
24103;DHT22;12278;53.058;9.028;2023-09-18T00:02:35;19.20;99.90
24103;DHT22;12278;53.058;9.028;2023-09-18T00:06:35;19.40;99.90
24103;DHT22;12278;53.058;9.028;2023-09-18T00:10:36;19.50;99.90
24103;DHT22;12278;53.058;9.028;2023-09-18T00:14:37;19.50;99.90
24103;DHT22;12278;53.058;9.028;2023-09-18T00:18:38;19.60;99.90
24103;DHT22;12278;53.058;9.028;2023-09-18T00:22:39;19.70;99.90
24103;DHT22;12278;53.058;9.028;2023-09-18T00:26:39;19.60;99.90
24103;DHT22;12278;53.058;9.028;2023-09-18T00:30:47;19.50;99.90
24103;DHT22;12278;53.058;9.028;2023-09-18T00:34:49;19.40;99.90
24103;DHT22;12278;53.058;9.028;2023-09-18T00:38:50;19.40;99.90
24103;DHT22;12278;53.058;9.028;2023-09-18T00:42:51;19.40;99.90
24103;DHT22;12278;53.058;9.028;2023-09-18T00:46:51;19.50;99.90
24103;DHT22;12278;53.058;9.028;2023-09-18T00:50:52;19.50;99.90
24103;DHT22;12278;53.058;9.028;2023-09-18T00:54:53;19.50;99.90
24103;DHT22;12278;53.058;9.028;2023-09-18T00:58:56;19.50;99.90
24103;DHT22;12278;53.058;9.028;2023-09-18T01:02:56;19.50;99.90
24103;DHT22;12278;53.058;9.028;2023-09-18T01:06:57;19.40;99.90
24103;DHT22;12278;53.058;9.028;2023-09-18T01:11:14;19.50;99.90
24103;DHT22;12278;53.058;9.028;2023-09-18T01:15:22;19.50;99.90
24103;DHT22;12278;53.058;9.028;2023-09-18T01:19:43;19.40;99.90
24103;DHT22;12278;53.058;9.028;2023-09-18T01:23:48;19.40;99.90
24103;DHT22;12278;53.058;9.028;2023-09-18T01:27:49;19.40;99.90
24103;DHT22;12278;53.058;9.028;2023-09-18T01:31:52;19.40;99.90
24103;DHT22;12278;53.058;9.028;2023-09-18T01:35:54;19.30;99.90
24103;DHT22;12278;53.058;9.028;2023-09-18T01:39:56;19.30;99.90
24103;DHT22;12278;53.058;9.028;2023-09-18T01:43:59;19.30;99.90
24103;DHT22;12278;53.058;9.028;2023-09-18T01:48:00;19.30;99.90
24103;DHT22;12278;53.058;9.028;2023-09-18T01:52:01;19.30;99.90
24103;DHT22;12278;53.058;9.028;2023-09-18T01:56:03;19.20;99.90
24103;DHT22;12278;53.058;9.028;2023-09-18T02:00:04;19.30;99.90
24103;DHT22;12278;53.058;9.028;2023-09-18T02:04:08;19.20;99.90
24103;DHT22;12278;53.058;9.028;2023-09-18T02:08:10;19.10;99.90
24103;DHT22;12278;53.058;9.028;2023-09-18T02:12:10;19.00;99.90
24103;DHT22;12278;53.058;9.028;2023-09-18T02:16:17;18.90;99.90
24103;DHT22;12278;53.058;9.028;2023-09-18T02:20:23;18.80;99.90
24103;DHT22;12278;53.058;9.028;2023-09-18T02:24:24;19.10;99.90
24103;DHT22;12278;53.058;9.028;2023-09-18T02:28:24;19.00;99.90
24103;DHT22;12278;53.058;9.028;2023-09-18T02:32:26;18.90;99.90
24103;DHT22;12278;53.058;9.028;2023-09-18T02:36:26;18.90;99.90
24103;DHT22;12278;53.058;9.028;2023-09-18T02:40:27;18.80;99.90
24103;DHT22;12278;53.058;9.028;2023-09-18T02:44:28;18.80;99.90
24103;DHT22;12278;53.058;9.028;2023-09-18T02:48:28;18.70;99.90
24103;DHT22;12278;53.058;9.028;2023-09-18T02:52:29;18.70;99.90
24103;DHT22;12278;53.058;9.028;2023-09-18T02:56:29;18.70;99.90
24103;DHT22;12278;53.058;9.028;2023-09-18T03:00:30;18.70;99.90
24103;DHT22;12278;53.058;9.028;2023-09-18T03:04:31;18.90;99.90
24103;DHT22;12278;53.058;9.028;2023-09-18T03:08:32;19.00;99.90
24103;DHT22;12278;53.058;9.028;2023-09-18T03:12:33;19.00;99.90
24103;DHT22;12278;53.058;9.028;2023-09-18T03:16:34;19.00;99.90
24103;DHT22;12278;53.058;9.028;2023-09-18T03:20:34;18.90;99.90
24103;DHT22;12278;53.058;9.028;2023-09-18T03:24:35;19.00;99.90
24103;DHT22;12278;53.058;9.028;2023-09-18T03:28:36;19.00;99.90
24103;DHT22;12278;53.058;9.028;2023-09-18T03:32:36;19.00;99.90
24103;DHT22;12278;53.058;9.028;2023-09-18T03:36:37;19.10;99.90
24103;DHT22;12278;53.058;9.028;2023-09-18T03:40:39;19.00;99.90
24103;DHT22;12278;53.058;9.028;2023-09-18T03:44:40;18.80;99.90
24103;DHT22;12278;53.058;9.028;2023-09-18T03:48:40;18.80;99.90
24103;DHT22;12278;53.058;9.028;2023-09-18T03:52:41;18.70;99.90
24103;DHT22;12278;53.058;9.028;2023-09-18T03:56:41;18.80;99.90
24103;DHT22;12278;53.058;9.028;2023-09-18T04:00:42;18.80;99.90
24103;DHT22;12278;53.058;9.028;2023-09-18T04:04:43;18.80;99.90
24103;DHT22;12278;53.058;9.028;2023-09-18T04:08:44;18.70;99.90
24103;DHT22;12278;53.058;9.028;2023-09-18T04:12:45;18.70;99.90
24103;DHT22;12278;53.058;9.028;2023-09-18T04:16:46;18.70;99.90
24103;DHT22;12278;53.058;9.028;2023-09-18T04:20:47;18.70;99.90
24103;DHT22;12278;53.058;9.028;2023-09-18T04:24:48;18.70;99.90
24103;DHT22;12278;53.058;9.028;2023-09-18T04:28:49;18.80;99.90
24103;DHT22;12278;53.058;9.028;2023-09-18T04:32:50;18.90;99.90
24103;DHT22;12278;53.058;9.028;2023-09-18T04:36:52;18.90;99.90
24103;DHT22;12278;53.058;9.028;2023-09-18T04:41:02;19.00;99.90
24103;DHT22;12278;53.058;9.028;2023-09-18T04:45:03;19.10;99.90
24103;DHT22;12278;53.058;9.028;2023-09-18T04:49:04;19.10;99.90
24103;DHT22;12278;53.058;9.028;2023-09-18T04:53:04;19.30;99.90
24103;DHT22;12278;53.058;9.028;2023-09-18T04:57:05;19.40;99.90
24103;DHT22;12278;53.058;9.028;2023-09-18T05:01:06;19.50;99.90
24103;DHT22;12278;53.058;9.028;2023-09-18T05:05:07;19.60;99.90
24103;DHT22;12278;53.058;9.028;2023-09-18T05:09:09;19.50;99.90
24103;DHT22;12278;53.058;9.028;2023-09-18T05:13:11;19.60;99.90
24103;DHT22;12278;53.058;9.028;2023-09-18T05:17:15;19.60;99.90
24103;DHT22;12278;53.058;9.028;2023-09-18T05:21:16;19.60;99.90
24103;DHT22;12278;53.058;9.028;2023-09-18T05:25:18;19.60;99.90
24103;DHT22;12278;53.058;9.028;2023-09-18T05:29:19;19.70;99.90
24103;DHT22;12278;53.058;9.028;2023-09-18T05:33:20;19.80;99.90
24103;DHT22;12278;53.058;9.028;2023-09-18T05:37:21;19.90;99.90
24103;DHT22;12278;53.058;9.028;2023-09-18T05:41:21;20.00;99.90
24103;DHT22;12278;53.058;9.028;2023-09-18T05:45:26;20.10;99.90
24103;DHT22;12278;53.058;9.028;2023-09-18T05:49:29;20.20;99.90
24103;DHT22;12278;53.058;9.028;2023-09-18T05:53:30;20.20;99.90
24103;DHT22;12278;53.058;9.028;2023-09-18T05:57:31;20.30;99.90
24103;DHT22;12278;53.058;9.028;2023-09-18T06:01:32;20.40;99.90
24103;DHT22;12278;53.058;9.028;2023-09-18T06:05:33;20.30;99.90
24103;DHT22;12278;53.058;9.028;2023-09-18T06:09:34;20.30;99.90
24103;DHT22;12278;53.058;9.028;2023-09-18T06:13:35;20.40;99.90
24103;DHT22;12278;53.058;9.028;2023-09-18T06:17:39;20.30;99.90
24103;DHT22;12278;53.058;9.028;2023-09-18T06:21:40;20.30;99.90
24103;DHT22;12278;53.058;9.028;2023-09-18T06:25:40;20.20;99.90
24103;DHT22;12278;53.058;9.028;2023-09-18T06:29:41;20.30;99.90
24103;DHT22;12278;53.058;9.028;2023-09-18T06:33:43;20.30;99.90
24103;DHT22;12278;53.058;9.028;2023-09-18T06:37:44;20.30;99.90
24103;DHT22;12278;53.058;9.028;2023-09-18T06:41:44;20.40;99.90
24103;DHT22;12278;53.058;9.028;2023-09-18T06:45:45;20.50;99.90
24103;DHT22;12278;53.058;9.028;2023-09-18T06:49:46;20.50;99.90
24103;DHT22;12278;53.058;9.028;2023-09-18T06:53:47;20.50;99.90
24103;DHT22;12278;53.058;9.028;2023-09-18T06:57:48;20.40;99.90
24103;DHT22;12278;53.058;9.028;2023-09-18T07:01:51;20.40;99.90
24103;DHT22;12278;53.058;9.028;2023-09-18T07:05:51;20.20;99.90
24103;DHT22;12278;53.058;9.028;2023-09-18T07:09:52;20.20;99.90
24103;DHT22;12278;53.058;9.028;2023-09-18T07:13:53;20.10;99.90
24103;DHT22;12278;53.058;9.028;2023-09-18T07:17:53;20.00;99.90
24103;DHT22;12278;53.058;9.028;2023-09-18T07:21:54;19.90;99.90
24103;DHT22;12278;53.058;9.028;2023-09-18T07:25:54;19.90;99.90
24103;DHT22;12278;53.058;9.028;2023-09-18T07:29:56;19.90;99.90
24103;DHT22;12278;53.058;9.028;2023-09-18T07:33:57;19.80;99.90
24103;DHT22;12278;53.058;9.028;2023-09-18T07:37:58;19.80;99.90
24103;DHT22;12278;53.058;9.028;2023-09-18T07:41:58;19.80;99.90
24103;DHT22;12278;53.058;9.028;2023-09-18T07:45:59;19.50;99.90
24103;DHT22;12278;53.058;9.028;2023-09-18T07:50:02;19.40;99.90
24103;DHT22;12278;53.058;9.028;2023-09-18T07:54:03;19.30;99.90
24103;DHT22;12278;53.058;9.028;2023-09-18T07:58:04;19.20;99.90
24103;DHT22;12278;53.058;9.028;2023-09-18T08:02:05;19.30;99.90
24103;DHT22;12278;53.058;9.028;2023-09-18T08:06:06;19.20;99.90
24103;DHT22;12278;53.058;9.028;2023-09-18T08:10:07;19.30;99.90
24103;DHT22;12278;53.058;9.028;2023-09-18T08:14:09;19.30;99.90
24103;DHT22;12278;53.058;9.028;2023-09-18T08:18:10;19.40;99.90
24103;DHT22;12278;53.058;9.028;2023-09-18T08:22:11;19.60;99.90
24103;DHT22;12278;53.058;9.028;2023-09-18T08:26:15;19.80;99.90
24103;DHT22;12278;53.058;9.028;2023-09-18T08:30:16;19.90;99.90
24103;DHT22;12278;53.058;9.028;2023-09-18T08:34:21;20.00;99.90
24103;DHT22;12278;53.058;9.028;2023-09-18T08:38:21;20.20;99.90
24103;DHT22;12278;53.058;9.028;2023-09-18T08:42:22;20.60;99.90
24103;DHT22;12278;53.058;9.028;2023-09-18T08:46:23;21.00;99.90
24103;DHT22;12278;53.058;9.028;2023-09-18T08:50:24;21.20;99.90
24103;DHT22;12278;53.058;9.028;2023-09-18T08:54:25;21.40;99.90
24103;DHT22;12278;53.058;9.028;2023-09-18T08:58:26;21.60;99.90
24103;DHT22;12278;53.058;9.028;2023-09-18T09:02:28;21.80;99.90
24103;DHT22;12278;53.058;9.028;2023-09-18T09:06:28;22.20;99.90
24103;DHT22;12278;53.058;9.028;2023-09-18T09:10:29;22.10;99.90
24103;DHT22;12278;53.058;9.028;2023-09-18T09:14:29;22.10;99.90
24103;DHT22;12278;53.058;9.028;2023-09-18T09:18:30;22.00;99.90
24103;DHT22;12278;53.058;9.028;2023-09-18T09:22:34;22.00;99.90
24103;DHT22;12278;53.058;9.028;2023-09-18T09:26:35;22.00;99.90
24103;DHT22;12278;53.058;9.028;2023-09-18T09:30:36;22.00;99.90
24103;DHT22;12278;53.058;9.028;2023-09-18T09:34:37;22.00;99.90
24103;DHT22;12278;53.058;9.028;2023-09-18T09:38:37;22.10;99.90
24103;DHT22;12278;53.058;9.028;2023-09-18T09:42:40;22.30;99.90
24103;DHT22;12278;53.058;9.028;2023-09-18T09:46:48;22.30;99.90
24103;DHT22;12278;53.058;9.028;2023-09-18T09:50:49;22.30;99.90
24103;DHT22;12278;53.058;9.028;2023-09-18T09:54:51;22.40;99.90
24103;DHT22;12278;53.058;9.028;2023-09-18T09:59:02;22.40;99.90
24103;DHT22;12278;53.058;9.028;2023-09-18T10:03:06;22.50;99.90
24103;DHT22;12278;53.058;9.028;2023-09-18T10:07:09;22.60;99.90
24103;DHT22;12278;53.058;9.028;2023-09-18T10:11:11;22.60;99.90
24103;DHT22;12278;53.058;9.028;2023-09-18T10:15:17;22.60;99.90
24103;DHT22;12278;53.058;9.028;2023-09-18T10:23:50;22.70;99.90
24103;DHT22;12278;53.058;9.028;2023-09-18T10:27:54;22.70;99.90
24103;DHT22;12278;53.058;9.028;2023-09-18T10:32:04;22.50;99.90
24103;DHT22;12278;53.058;9.028;2023-09-18T10:36:06;22.50;99.90
24103;DHT22;12278;53.058;9.028;2023-09-18T10:40:08;22.50;99.90
24103;DHT22;12278;53.058;9.028;2023-09-18T10:44:10;22.60;99.90
24103;DHT22;12278;53.058;9.028;2023-09-18T10:48:11;22.60;99.90
24103;DHT22;12278;53.058;9.028;2023-09-18T10:52:14;22.60;99.90
24103;DHT22;12278;53.058;9.028;2023-09-18T10:56:19;22.40;99.90
24103;DHT22;12278;53.058;9.028;2023-09-18T11:00:31;22.40;99.90
24103;DHT22;12278;53.058;9.028;2023-09-18T11:04:32;22.30;99.90
24103;DHT22;12278;53.058;9.028;2023-09-18T11:08:35;22.40;99.90
24103;DHT22;12278;53.058;9.028;2023-09-18T11:12:44;22.50;99.90
24103;DHT22;12278;53.058;9.028;2023-09-18T11:16:49;22.60;99.90
24103;DHT22;12278;53.058;9.028;2023-09-18T11:21:10;22.70;99.90
24103;DHT22;12278;53.058;9.028;2023-09-18T11:25:35;22.80;99.90
24103;DHT22;12278;53.058;9.028;2023-09-18T11:29:37;22.80;99.90
24103;DHT22;12278;53.058;9.028;2023-09-18T11:33:39;22.90;99.90
24103;DHT22;12278;53.058;9.028;2023-09-18T11:37:41;23.10;99.90
24103;DHT22;12278;53.058;9.028;2023-09-18T11:41:42;23.10;99.90
24103;DHT22;12278;53.058;9.028;2023-09-18T11:45:43;23.00;99.90
24103;DHT22;12278;53.058;9.028;2023-09-18T11:53:57;23.50;99.90
24103;DHT22;12278;53.058;9.028;2023-09-18T11:57:59;23.80;99.90
24103;DHT22;12278;53.058;9.028;2023-09-18T12:02:02;23.60;99.90
24103;DHT22;12278;53.058;9.028;2023-09-18T12:06:06;23.20;99.90
24103;DHT22;12278;53.058;9.028;2023-09-18T12:10:10;22.90;99.90
24103;DHT22;12278;53.058;9.028;2023-09-18T12:14:11;22.80;99.90
24103;DHT22;12278;53.058;9.028;2023-09-18T12:18:14;22.90;99.90
24103;DHT22;12278;53.058;9.028;2023-09-18T12:22:26;23.00;99.90
24103;DHT22;12278;53.058;9.028;2023-09-18T12:26:27;23.20;99.90
24103;DHT22;12278;53.058;9.028;2023-09-18T12:30:28;23.10;99.90
24103;DHT22;12278;53.058;9.028;2023-09-18T12:34:29;23.50;99.90
24103;DHT22;12278;53.058;9.028;2023-09-18T12:38:29;23.80;99.90
24103;DHT22;12278;53.058;9.028;2023-09-18T12:42:46;24.20;99.90
24103;DHT22;12278;53.058;9.028;2023-09-18T12:46:47;24.10;99.90
24103;DHT22;12278;53.058;9.028;2023-09-18T12:50:53;24.40;99.90
24103;DHT22;12278;53.058;9.028;2023-09-18T12:54:54;24.10;99.90
24103;DHT22;12278;53.058;9.028;2023-09-18T12:58:59;23.70;99.90
24103;DHT22;12278;53.058;9.028;2023-09-18T13:03:00;23.70;99.90
24103;DHT22;12278;53.058;9.028;2023-09-18T13:07:06;23.50;99.90
24103;DHT22;12278;53.058;9.028;2023-09-18T13:11:07;23.50;99.90
24103;DHT22;12278;53.058;9.028;2023-09-18T13:15:09;23.30;99.90
24103;DHT22;12278;53.058;9.028;2023-09-18T13:19:10;23.20;99.90
24103;DHT22;12278;53.058;9.028;2023-09-18T13:23:10;23.30;99.90
24103;DHT22;12278;53.058;9.028;2023-09-18T13:27:11;23.30;99.90
24103;DHT22;12278;53.058;9.028;2023-09-18T13:31:12;23.30;99.90
24103;DHT22;12278;53.058;9.028;2023-09-18T13:35:13;23.30;99.90
24103;DHT22;12278;53.058;9.028;2023-09-18T13:39:14;23.40;99.90
24103;DHT22;12278;53.058;9.028;2023-09-18T13:43:18;23.50;99.90
24103;DHT22;12278;53.058;9.028;2023-09-18T13:47:21;23.80;99.90
24103;DHT22;12278;53.058;9.028;2023-09-18T13:51:22;25.20;99.90
24103;DHT22;12278;53.058;9.028;2023-09-18T13:55:23;26.40;99.90
24103;DHT22;12278;53.058;9.028;2023-09-18T13:59:24;27.10;99.90
24103;DHT22;12278;53.058;9.028;2023-09-18T14:03:25;27.90;99.90
24103;DHT22;12278;53.058;9.028;2023-09-18T14:07:26;28.00;99.90
24103;DHT22;12278;53.058;9.028;2023-09-18T14:11:26;27.30;99.90
24103;DHT22;12278;53.058;9.028;2023-09-18T14:15:27;27.50;99.90
24103;DHT22;12278;53.058;9.028;2023-09-18T14:19:30;26.80;99.90
24103;DHT22;12278;53.058;9.028;2023-09-18T14:23:31;25.40;99.90
24103;DHT22;12278;53.058;9.028;2023-09-18T14:27:32;24.60;99.90
24103;DHT22;12278;53.058;9.028;2023-09-18T14:31:34;24.80;99.90
24103;DHT22;12278;53.058;9.028;2023-09-18T14:35:34;26.50;99.90
24103;DHT22;12278;53.058;9.028;2023-09-18T14:39:36;28.90;99.90
24103;DHT22;12278;53.058;9.028;2023-09-18T14:43:37;30.20;99.90
24103;DHT22;12278;53.058;9.028;2023-09-18T14:47:38;28.80;99.90
24103;DHT22;12278;53.058;9.028;2023-09-18T14:51:38;27.40;99.90
24103;DHT22;12278;53.058;9.028;2023-09-18T14:55:39;29.00;99.90
24103;DHT22;12278;53.058;9.028;2023-09-18T14:59:40;27.40;99.90
24103;DHT22;12278;53.058;9.028;2023-09-18T15:03:47;27.80;99.90
24103;DHT22;12278;53.058;9.028;2023-09-18T15:07:51;28.40;99.90
24103;DHT22;12278;53.058;9.028;2023-09-18T15:11:52;26.50;99.90
24103;DHT22;12278;53.058;9.028;2023-09-18T15:15:52;26.70;99.90
24103;DHT22;12278;53.058;9.028;2023-09-18T15:19:54;26.70;99.90
24103;DHT22;12278;53.058;9.028;2023-09-18T15:23:55;26.40;99.90
24103;DHT22;12278;53.058;9.028;2023-09-18T15:27:57;26.90;99.90
24103;DHT22;12278;53.058;9.028;2023-09-18T15:31:58;26.60;99.90
24103;DHT22;12278;53.058;9.028;2023-09-18T15:36:00;25.50;99.90
24103;DHT22;12278;53.058;9.028;2023-09-18T15:40:01;25.50;99.90
24103;DHT22;12278;53.058;9.028;2023-09-18T15:44:05;26.30;99.90
24103;DHT22;12278;53.058;9.028;2023-09-18T15:48:06;25.40;99.90
24103;DHT22;12278;53.058;9.028;2023-09-18T15:52:06;25.60;99.90
24103;DHT22;12278;53.058;9.028;2023-09-18T15:56:07;25.70;99.90
24103;DHT22;12278;53.058;9.028;2023-09-18T16:00:09;25.10;99.90
24103;DHT22;12278;53.058;9.028;2023-09-18T16:04:10;24.70;99.90
24103;DHT22;12278;53.058;9.028;2023-09-18T16:08:11;24.60;99.90
24103;DHT22;12278;53.058;9.028;2023-09-18T16:12:12;24.60;99.90
24103;DHT22;12278;53.058;9.028;2023-09-18T16:16:13;24.60;99.90
24103;DHT22;12278;53.058;9.028;2023-09-18T16:20:14;24.50;99.90
24103;DHT22;12278;53.058;9.028;2023-09-18T16:24:14;24.30;99.90
24103;DHT22;12278;53.058;9.028;2023-09-18T16:28:16;23.90;99.90
24103;DHT22;12278;53.058;9.028;2023-09-18T16:32:17;23.70;99.90
24103;DHT22;12278;53.058;9.028;2023-09-18T16:36:19;23.40;99.90
24103;DHT22;12278;53.058;9.028;2023-09-18T16:40:21;23.20;99.90
24103;DHT22;12278;53.058;9.028;2023-09-18T16:44:22;23.10;99.90
24103;DHT22;12278;53.058;9.028;2023-09-18T16:48:22;23.00;99.90
24103;DHT22;12278;53.058;9.028;2023-09-18T16:52:24;23.00;99.90
24103;DHT22;12278;53.058;9.028;2023-09-18T16:56:25;23.00;99.90
24103;DHT22;12278;53.058;9.028;2023-09-18T17:00:25;22.90;99.90
24103;DHT22;12278;53.058;9.028;2023-09-18T17:04:26;23.00;99.90
24103;DHT22;12278;53.058;9.028;2023-09-18T17:08:27;22.90;99.90
24103;DHT22;12278;53.058;9.028;2023-09-18T17:12:28;22.70;99.90
24103;DHT22;12278;53.058;9.028;2023-09-18T17:16:28;22.60;99.90
24103;DHT22;12278;53.058;9.028;2023-09-18T17:20:31;22.50;99.90
24103;DHT22;12278;53.058;9.028;2023-09-18T17:24:32;22.40;99.90
24103;DHT22;12278;53.058;9.028;2023-09-18T17:28:37;22.40;99.90
24103;DHT22;12278;53.058;9.028;2023-09-18T17:32:37;22.10;99.90
24103;DHT22;12278;53.058;9.028;2023-09-18T17:36:38;22.10;99.90
24103;DHT22;12278;53.058;9.028;2023-09-18T17:40:39;22.10;99.90
24103;DHT22;12278;53.058;9.028;2023-09-18T17:44:40;22.00;99.90
24103;DHT22;12278;53.058;9.028;2023-09-18T17:48:40;21.90;99.90
24103;DHT22;12278;53.058;9.028;2023-09-18T17:52:41;21.80;99.90
24103;DHT22;12278;53.058;9.028;2023-09-18T17:56:42;21.80;99.90
24103;DHT22;12278;53.058;9.028;2023-09-18T18:00:43;21.60;99.90
24103;DHT22;12278;53.058;9.028;2023-09-18T18:04:48;21.50;99.90
24103;DHT22;12278;53.058;9.028;2023-09-18T18:08:48;21.40;99.90
24103;DHT22;12278;53.058;9.028;2023-09-18T18:12:49;21.30;99.90
24103;DHT22;12278;53.058;9.028;2023-09-18T18:16:50;21.30;99.90
24103;DHT22;12278;53.058;9.028;2023-09-18T18:20:50;21.20;99.90
24103;DHT22;12278;53.058;9.028;2023-09-18T18:24:51;21.20;99.90
24103;DHT22;12278;53.058;9.028;2023-09-18T18:28:56;21.10;99.90
24103;DHT22;12278;53.058;9.028;2023-09-18T18:33:02;21.10;99.90
24103;DHT22;12278;53.058;9.028;2023-09-18T18:37:03;21.00;99.90
24103;DHT22;12278;53.058;9.028;2023-09-18T18:41:04;21.00;99.90
24103;DHT22;12278;53.058;9.028;2023-09-18T18:45:05;21.00;99.90
24103;DHT22;12278;53.058;9.028;2023-09-18T18:49:06;21.00;99.90
24103;DHT22;12278;53.058;9.028;2023-09-18T18:53:06;21.00;99.90
24103;DHT22;12278;53.058;9.028;2023-09-18T18:57:08;21.10;99.90
24103;DHT22;12278;53.058;9.028;2023-09-18T19:01:09;21.00;99.90
24103;DHT22;12278;53.058;9.028;2023-09-18T19:05:09;21.00;99.90
24103;DHT22;12278;53.058;9.028;2023-09-18T19:09:10;21.00;99.90
24103;DHT22;12278;53.058;9.028;2023-09-18T19:13:12;20.90;99.90
24103;DHT22;12278;53.058;9.028;2023-09-18T19:17:13;19.30;99.90
24103;DHT22;12278;53.058;9.028;2023-09-18T19:21:14;18.10;99.90
24103;DHT22;12278;53.058;9.028;2023-09-18T19:25:15;17.60;99.90
24103;DHT22;12278;53.058;9.028;2023-09-18T19:29:17;17.30;99.90
24103;DHT22;12278;53.058;9.028;2023-09-18T19:33:18;17.20;99.90
24103;DHT22;12278;53.058;9.028;2023-09-18T19:37:19;17.10;99.90
24103;DHT22;12278;53.058;9.028;2023-09-18T19:41:20;17.10;99.90
24103;DHT22;12278;53.058;9.028;2023-09-18T19:45:23;17.10;99.90
24103;DHT22;12278;53.058;9.028;2023-09-18T19:49:26;17.20;99.90
24103;DHT22;12278;53.058;9.028;2023-09-18T19:53:27;17.20;99.90
24103;DHT22;12278;53.058;9.028;2023-09-18T19:57:28;17.10;99.90
24103;DHT22;12278;53.058;9.028;2023-09-18T20:01:29;17.10;99.90
24103;DHT22;12278;53.058;9.028;2023-09-18T20:05:34;17.00;99.90
24103;DHT22;12278;53.058;9.028;2023-09-18T20:09:34;17.00;99.90
24103;DHT22;12278;53.058;9.028;2023-09-18T20:13:35;17.10;99.90
24103;DHT22;12278;53.058;9.028;2023-09-18T20:17:36;17.10;99.90
24103;DHT22;12278;53.058;9.028;2023-09-18T20:21:36;17.10;99.90
24103;DHT22;12278;53.058;9.028;2023-09-18T20:25:37;17.10;99.90
24103;DHT22;12278;53.058;9.028;2023-09-18T20:29:38;17.20;99.90
24103;DHT22;12278;53.058;9.028;2023-09-18T20:33:39;16.80;99.90
24103;DHT22;12278;53.058;9.028;2023-09-18T20:37:40;16.80;99.90
24103;DHT22;12278;53.058;9.028;2023-09-18T20:41:40;16.90;99.90
24103;DHT22;12278;53.058;9.028;2023-09-18T20:45:41;16.80;99.90
24103;DHT22;12278;53.058;9.028;2023-09-18T20:49:42;16.80;99.90
24103;DHT22;12278;53.058;9.028;2023-09-18T20:53:48;16.70;99.90
24103;DHT22;12278;53.058;9.028;2023-09-18T20:57:48;16.70;99.90
24103;DHT22;12278;53.058;9.028;2023-09-18T21:01:49;16.80;99.90
24103;DHT22;12278;53.058;9.028;2023-09-18T21:05:53;16.90;99.90
24103;DHT22;12278;53.058;9.028;2023-09-18T21:09:54;16.90;99.90
24103;DHT22;12278;53.058;9.028;2023-09-18T21:13:56;16.90;99.90
24103;DHT22;12278;53.058;9.028;2023-09-18T21:17:57;16.90;99.90
24103;DHT22;12278;53.058;9.028;2023-09-18T21:21:57;16.80;99.90
24103;DHT22;12278;53.058;9.028;2023-09-18T21:25:58;16.70;99.90
24103;DHT22;12278;53.058;9.028;2023-09-18T21:29:59;16.70;99.90
24103;DHT22;12278;53.058;9.028;2023-09-18T21:34:01;16.70;99.90
24103;DHT22;12278;53.058;9.028;2023-09-18T21:38:02;16.80;99.90
24103;DHT22;12278;53.058;9.028;2023-09-18T21:42:03;16.90;99.90
24103;DHT22;12278;53.058;9.028;2023-09-18T21:46:04;16.80;99.90
24103;DHT22;12278;53.058;9.028;2023-09-18T21:50:05;16.80;99.90
24103;DHT22;12278;53.058;9.028;2023-09-18T21:54:07;16.70;99.90
24103;DHT22;12278;53.058;9.028;2023-09-18T21:58:08;16.80;99.90
24103;DHT22;12278;53.058;9.028;2023-09-18T22:02:09;16.80;99.90
24103;DHT22;12278;53.058;9.028;2023-09-18T22:06:10;16.70;99.90
24103;DHT22;12278;53.058;9.028;2023-09-18T22:10:11;16.70;99.90
24103;DHT22;12278;53.058;9.028;2023-09-18T22:14:12;16.60;99.90
24103;DHT22;12278;53.058;9.028;2023-09-18T22:18:13;16.60;99.90
24103;DHT22;12278;53.058;9.028;2023-09-18T22:22:13;16.50;99.90
24103;DHT22;12278;53.058;9.028;2023-09-18T22:26:14;16.60;99.90
24103;DHT22;12278;53.058;9.028;2023-09-18T22:30:16;16.60;99.90
24103;DHT22;12278;53.058;9.028;2023-09-18T22:34:16;16.60;99.90
24103;DHT22;12278;53.058;9.028;2023-09-18T22:38:36;16.60;99.90
24103;DHT22;12278;53.058;9.028;2023-09-18T22:56:36;16.60;99.90
24103;DHT22;12278;53.058;9.028;2023-09-18T23:00:37;16.70;99.90
24103;DHT22;12278;53.058;9.028;2023-09-18T23:04:38;16.60;99.90
24103;DHT22;12278;53.058;9.028;2023-09-18T23:08:40;16.60;99.90
24103;DHT22;12278;53.058;9.028;2023-09-18T23:12:40;16.60;99.90
24103;DHT22;12278;53.058;9.028;2023-09-18T23:16:43;16.60;99.90
24103;DHT22;12278;53.058;9.028;2023-09-18T23:20:48;16.60;99.90
24103;DHT22;12278;53.058;9.028;2023-09-18T23:24:51;16.50;99.90
24103;DHT22;12278;53.058;9.028;2023-09-18T23:28:52;16.50;99.90
24103;DHT22;12278;53.058;9.028;2023-09-18T23:32:55;16.50;99.90
24103;DHT22;12278;53.058;9.028;2023-09-18T23:36:56;16.50;99.90
24103;DHT22;12278;53.058;9.028;2023-09-18T23:40:57;16.60;99.90
24103;DHT22;12278;53.058;9.028;2023-09-18T23:45:00;16.50;99.90
24103;DHT22;12278;53.058;9.028;2023-09-18T23:49:07;16.50;99.90
24103;DHT22;12278;53.058;9.028;2023-09-18T23:53:10;16.40;99.90
24103;DHT22;12278;53.058;9.028;2023-09-18T23:57:13;16.40;99.90
